Crafts Farrow, South Carolina
Current Conditions -  °F | °C
As of 4:53 PM on Sunday 21 Dec 2014 (Local Time) from KCUB Reporting Station
Overcast Overcast  
Wind Chill: 53°   Ceiling: 6500
Heat Index: 53°   Visibility: 10mi
Dew Point: 40°   Wind: 5mph
Humidity: 61%   Direction: NA
Pressure: 30.17"   Gusts: NA
Location:  34.1179°N, 81.0612°W
Report Text: KCUB 212153Z AUTO VRB04KT 10SM OVC065 12/04 A3017 RMK AO2 SLP217 T01170044
Loading
Personal Weather Stations






























Interactive Weather Map New forecast layout! Learn more

10-Day Weather Forecast

Advertisements
Track Severe Weather on mobile